createdAt,value
2018-03-06T00:00:53.277Z,91.30
2018-03-06T00:03:20.836Z,91.50
2018-03-06T00:05:49.150Z,91.60
2018-03-06T00:08:16.679Z,91.60
2018-03-06T00:10:44.980Z,92.00
2018-03-06T00:13:12.549Z,92.00
2018-03-06T00:15:40.103Z,92.30
2018-03-06T00:18:07.695Z,92.30
2018-03-06T00:20:35.965Z,92.50
2018-03-06T00:23:03.507Z,92.30
2018-03-06T00:25:31.834Z,92.50
2018-03-06T00:27:59.377Z,92.40
2018-03-06T00:30:26.916Z,92.70
2018-03-06T00:32:55.220Z,92.50
2018-03-06T00:35:22.767Z,92.50
2018-03-06T00:37:51.112Z,92.30
2018-03-06T00:40:18.645Z,92.20
2018-03-06T00:42:46.198Z,92.20
2018-03-06T00:45:13.759Z,92.10
2018-03-06T00:47:41.260Z,91.80
2018-03-06T00:50:08.829Z,92.00
2018-03-06T00:52:36.373Z,91.90
2018-03-06T00:55:03.975Z,91.90
2018-03-06T00:57:31.516Z,91.60
2018-03-06T00:59:59.066Z,91.70
2018-03-06T01:02:26.664Z,91.70
2018-03-06T01:04:54.227Z,91.60
2018-03-06T01:07:21.746Z,91.70
2018-03-06T01:09:49.300Z,91.80
2018-03-06T01:12:17.620Z,92.10
2018-03-06T01:14:45.589Z,92.10
2018-03-06T01:17:13.146Z,92.20
2018-03-06T01:19:40.714Z,92.70
2018-03-06T01:22:08.273Z,92.50
2018-03-06T01:24:35.807Z,92.60
2018-03-06T01:27:03.381Z,92.70
2018-03-06T01:29:31.692Z,92.70
2018-03-06T01:31:59.234Z,92.70
2018-03-06T01:34:27.546Z,92.60
2018-03-06T01:36:55.093Z,92.60
2018-03-06T01:39:22.974Z,92.60
2018-03-06T01:41:50.598Z,92.80
2018-03-06T01:44:18.135Z,92.90
2018-03-06T01:46:45.686Z,93.10
2018-03-06T01:49:13.226Z,93.10
2018-03-06T01:51:53.020Z,93.30
2018-03-06T01:54:20.566Z,93.40
2018-03-06T01:56:48.104Z,93.30
2018-03-06T01:59:15.681Z,93.40
2018-03-06T02:01:43.272Z,93.30
2018-03-06T02:04:10.861Z,93.30
2018-03-06T02:06:38.413Z,93.30
2018-03-06T02:09:05.948Z,93.30
2018-03-06T02:11:33.502Z,93.30
2018-03-06T02:14:01.044Z,93.40
2018-03-06T02:16:29.688Z,93.20
2018-03-06T02:18:57.235Z,93.20
2018-03-06T02:21:24.848Z,93.10
2018-03-06T02:23:52.388Z,93.00
2018-03-06T02:26:19.930Z,92.80
2018-03-06T02:28:47.481Z,92.70
2018-03-06T02:31:15.019Z,92.60
2018-03-06T02:33:42.632Z,92.50
2018-03-06T02:36:10.186Z,92.50
2018-03-06T02:38:37.709Z,92.50
2018-03-06T02:41:05.610Z,92.60
2018-03-06T02:43:33.161Z,92.60
2018-03-06T02:46:10.366Z,93.30
2018-03-06T02:48:37.905Z,93.30
2018-03-06T02:51:05.435Z,93.50
2018-03-06T02:53:32.985Z,93.50
2018-03-06T02:56:00.537Z,93.60
2018-03-06T02:58:28.394Z,93.50
2018-03-06T03:00:56.700Z,93.40
2018-03-06T03:03:24.247Z,93.50
2018-03-06T03:05:51.787Z,93.40
2018-03-06T03:08:20.107Z,93.70
2018-03-06T03:10:47.659Z,93.40
2018-03-06T03:13:15.274Z,93.40
2018-03-06T03:15:42.817Z,93.30
2018-03-06T03:18:10.349Z,93.30
2018-03-06T03:20:37.917Z,93.30
2018-03-06T03:23:05.471Z,93.30
2018-03-06T03:25:33.788Z,93.40
2018-03-06T03:28:01.320Z,93.40
2018-03-06T03:30:29.709Z,93.40
2018-03-06T03:32:58.023Z,93.40
2018-03-06T03:35:25.894Z,93.40
2018-03-06T03:37:53.435Z,93.50
2018-03-06T03:40:20.986Z,93.60
2018-03-06T03:42:49.292Z,93.70
2018-03-06T03:45:16.852Z,93.70
2018-03-06T03:47:44.425Z,93.70
2018-03-06T03:50:11.979Z,93.90
2018-03-06T03:52:40.382Z,93.80
2018-03-06T03:55:07.925Z,93.80
2018-03-06T03:57:36.238Z,93.80
2018-03-06T04:00:03.811Z,93.80
2018-03-06T04:02:31.385Z,93.80
2018-03-06T04:04:58.934Z,93.80
2018-03-06T04:07:26.484Z,93.80
2018-03-06T04:09:54.023Z,93.90
2018-03-06T04:12:22.464Z,94.20
2018-03-06T04:14:50.022Z,94.20
2018-03-06T04:17:17.624Z,94.10
2018-03-06T04:19:45.116Z,94.20
2018-03-06T04:22:13.427Z,94.20
2018-03-06T04:24:41.385Z,94.20
2018-03-06T04:27:09.029Z,94.20
2018-03-06T04:29:37.331Z,94.50
2018-03-06T04:32:04.884Z,94.50
2018-03-06T04:34:33.188Z,94.90
2018-03-06T04:37:00.773Z,95.20
2018-03-06T04:39:28.321Z,95.00
2018-03-06T04:41:55.956Z,95.20
2018-03-06T04:44:24.262Z,95.00
2018-03-06T04:46:51.811Z,95.00
2018-03-06T04:49:20.189Z,95.30
2018-03-06T04:51:48.494Z,95.20
2018-03-06T04:54:16.031Z,95.20
2018-03-06T04:56:43.564Z,95.10
2018-03-06T04:59:11.139Z,95.00
2018-03-06T05:01:38.725Z,94.70
2018-03-06T05:04:06.280Z,94.50
2018-03-06T05:06:33.844Z,94.60
2018-03-06T05:09:01.396Z,94.60
2018-03-06T05:11:28.960Z,94.50
2018-03-06T05:13:56.516Z,94.30
2018-03-06T05:16:24.844Z,94.40
2018-03-06T05:18:53.164Z,94.40
2018-03-06T05:21:20.706Z,94.40
2018-03-06T05:23:49.028Z,94.50
2018-03-06T05:26:17.372Z,94.30
2018-03-06T05:28:45.673Z,94.20
2018-03-06T05:31:13.218Z,94.20
2018-03-06T05:33:40.775Z,94.40
2018-03-06T05:36:09.089Z,94.50
2018-03-06T05:38:36.660Z,94.50
2018-03-06T05:41:04.199Z,94.60
2018-03-06T05:43:31.757Z,94.60
2018-03-06T05:46:00.108Z,94.70
2018-03-06T05:48:27.667Z,94.60
2018-03-06T05:50:56.832Z,94.70
2018-03-06T05:53:24.363Z,95.00
2018-03-06T05:55:52.035Z,94.70
2018-03-06T05:58:20.352Z,94.70
2018-03-06T06:00:48.095Z,94.60
2018-03-06T06:03:15.669Z,94.60
2018-03-06T06:05:43.196Z,94.70
2018-03-06T06:08:10.734Z,94.80
2018-03-06T06:10:38.290Z,95.00
2018-03-06T06:13:05.846Z,95.10
2018-03-06T06:15:33.415Z,95.30
2018-03-06T06:18:00.946Z,95.30
2018-03-06T06:20:29.243Z,95.40
2018-03-06T06:22:56.773Z,95.30
2018-03-06T06:25:24.337Z,95.30
2018-03-06T06:27:51.908Z,95.40
2018-03-06T06:30:19.428Z,95.20
2018-03-06T06:32:47.021Z,95.20
2018-03-06T06:35:15.347Z,95.10
2018-03-06T06:37:43.657Z,95.10
2018-03-06T06:40:11.247Z,95.10
2018-03-06T06:42:38.795Z,95.20
2018-03-06T06:45:06.343Z,95.20
2018-03-06T06:47:33.888Z,95.10
2018-03-06T06:50:02.183Z,95.00
2018-03-06T06:52:29.763Z,95.00
2018-03-06T06:54:57.401Z,94.70
2018-03-06T06:57:25.713Z,94.50
2018-03-06T06:59:53.238Z,94.40
2018-03-06T07:02:20.801Z,94.40
2018-03-06T07:04:48.397Z,94.20
2018-03-06T07:07:15.932Z,93.90
2018-03-06T07:09:43.489Z,93.50
2018-03-06T07:12:11.039Z,93.50
2018-03-06T07:14:38.566Z,93.50
2018-03-06T07:17:06.204Z,93.30
2018-03-06T07:19:34.521Z,93.20
2018-03-06T07:22:02.129Z,93.10
2018-03-06T07:24:29.674Z,93.10
2018-03-06T07:26:57.229Z,93.00
2018-03-06T07:29:24.782Z,92.90
2018-03-06T07:31:52.398Z,92.90
2018-03-06T07:34:19.892Z,92.70
2018-03-06T07:36:48.191Z,92.70
2018-03-06T07:39:15.730Z,92.70
2018-03-06T07:41:44.078Z,92.40
2018-03-06T07:44:12.380Z,92.30
2018-03-06T07:46:39.910Z,92.20
2018-03-06T07:49:07.437Z,92.00
2018-03-06T07:51:35.732Z,91.60
2018-03-06T07:54:03.276Z,91.70
2018-03-06T07:56:31.586Z,91.50
2018-03-06T07:58:59.114Z,91.50
2018-03-06T08:01:26.648Z,91.50
2018-03-06T08:03:54.299Z,91.50
2018-03-06T08:06:21.850Z,91.40
2018-03-06T08:08:49.380Z,91.10
2018-03-06T08:11:16.971Z,90.90
2018-03-06T08:13:44.542Z,90.90
2018-03-06T08:16:12.070Z,90.90
2018-03-06T08:18:39.640Z,90.80
2018-03-06T08:21:07.163Z,90.70
2018-03-06T08:23:34.716Z,90.60
2018-03-06T08:26:02.310Z,90.60
2018-03-06T08:28:29.849Z,90.50
2018-03-06T08:30:57.408Z,90.30
2018-03-06T08:33:24.940Z,90.00
2018-03-06T08:35:53.266Z,90.10
2018-03-06T08:38:20.832Z,90.10
2018-03-06T08:40:48.400Z,89.90
2018-03-06T08:43:16.241Z,89.00
2018-03-06T08:45:43.781Z,89.00
2018-03-06T08:48:12.110Z,88.20
2018-03-06T08:50:39.647Z,88.10
2018-03-06T08:53:07.184Z,88.20
2018-03-06T08:55:34.754Z,87.60
2018-03-06T08:58:02.297Z,87.00
2018-03-06T09:00:29.842Z,86.10
2018-03-06T09:02:57.422Z,85.90
2018-03-06T09:05:25.040Z,85.80
2018-03-06T09:07:52.614Z,85.30
2018-03-06T09:10:20.154Z,85.00
2018-03-06T09:12:48.467Z,85.10
2018-03-06T09:15:16.073Z,85.10
2018-03-06T09:17:43.623Z,84.50
2018-03-06T09:20:11.211Z,84.10
2018-03-06T09:22:38.872Z,82.80
2018-03-06T09:25:07.186Z,81.70
2018-03-06T09:27:35.508Z,81.60
2018-03-06T09:30:03.053Z,81.50
2018-03-06T09:32:31.374Z,80.50
2018-03-06T09:34:58.916Z,80.40
2018-03-06T09:37:26.446Z,79.70
2018-03-06T09:39:54.762Z,79.10
2018-03-06T09:42:22.309Z,78.60
2018-03-06T09:44:50.637Z,77.00
2018-03-06T09:47:18.180Z,76.90
2018-03-06T09:49:45.742Z,77.20
2018-03-06T09:52:13.309Z,77.30
2018-03-06T09:54:40.883Z,76.90
2018-03-06T09:57:08.512Z,75.60
2018-03-06T09:59:36.833Z,76.30
2018-03-06T10:02:04.374Z,76.20
2018-03-06T10:04:31.929Z,76.40
2018-03-06T10:07:00.247Z,73.90
2018-03-06T10:09:27.804Z,73.90
2018-03-06T10:11:55.381Z,75.20
2018-03-06T10:14:22.946Z,74.80
2018-03-06T10:16:50.479Z,74.40
2018-03-06T10:19:18.818Z,73.40
2018-03-06T10:21:46.387Z,73.40
2018-03-06T10:24:13.933Z,72.70
2018-03-06T10:26:41.497Z,72.70
2018-03-06T10:29:09.036Z,72.50
2018-03-06T10:31:36.582Z,72.50
2018-03-06T10:34:04.987Z,71.30
2018-03-06T10:36:32.572Z,71.30
2018-03-06T10:39:00.860Z,70.50
2018-03-06T10:41:28.403Z,70.50
2018-03-06T10:43:55.957Z,70.20
2018-03-06T10:46:24.272Z,70.00
2018-03-06T10:48:51.821Z,69.90
2018-03-06T10:51:19.377Z,68.50
2018-03-06T10:53:46.904Z,69.20
2018-03-06T10:56:14.450Z,68.00
2018-03-06T10:58:42.021Z,68.40
2018-03-06T11:01:09.582Z,67.20
2018-03-06T11:03:37.110Z,67.60
2018-03-06T11:06:04.730Z,66.90
2018-03-06T11:08:32.273Z,64.90
2018-03-06T11:11:00.200Z,64.50
2018-03-06T11:13:28.517Z,63.20
2018-03-06T11:15:56.075Z,63.20
2018-03-06T11:18:23.677Z,61.80
2018-03-06T11:20:51.195Z,61.70
2018-03-06T11:23:18.820Z,62.10
2018-03-06T11:25:46.440Z,61.40
2018-03-06T11:28:14.000Z,60.40
2018-03-06T11:30:41.543Z,60.20
2018-03-06T11:33:09.850Z,60.60
2018-03-06T11:35:37.421Z,60.60
2018-03-06T11:38:04.983Z,61.20
2018-03-06T11:40:32.536Z,61.70
2018-03-06T11:43:00.086Z,61.70
2018-03-06T11:45:28.423Z,60.10
2018-03-06T11:47:56.262Z,60.10
2018-03-06T11:50:23.800Z,60.20
2018-03-06T11:52:52.115Z,60.10
2018-03-06T11:55:19.669Z,59.40
2018-03-06T11:57:47.216Z,60.00
2018-03-06T12:00:15.538Z,60.10
2018-03-06T12:02:43.078Z,60.00
2018-03-06T12:05:10.650Z,61.30
2018-03-06T12:07:38.240Z,61.10
2018-03-06T12:10:05.825Z,60.50
2018-03-06T12:12:33.390Z,61.20
2018-03-06T12:15:01.013Z,61.20
2018-03-06T12:17:28.574Z,60.50
2018-03-06T12:19:56.112Z,60.50
2018-03-06T12:22:23.696Z,59.80
2018-03-06T12:24:52.025Z,60.50
2018-03-06T12:27:19.558Z,60.40
2018-03-06T12:29:47.095Z,59.90
2018-03-06T12:32:15.421Z,59.80
2018-03-06T12:34:42.956Z,59.60
2018-03-06T12:37:11.280Z,59.00
2018-03-06T12:39:38.801Z,59.00
2018-03-06T12:42:07.087Z,59.70
2018-03-06T12:44:35.402Z,59.50
2018-03-06T12:47:02.942Z,59.30
2018-03-06T12:49:31.272Z,58.20
2018-03-06T12:51:58.819Z,58.20
2018-03-06T12:54:26.367Z,58.10
2018-03-06T12:56:53.919Z,58.40
2018-03-06T12:59:21.458Z,58.70
2018-03-06T13:01:49.030Z,58.40
2018-03-06T13:04:17.367Z,58.50
2018-03-06T13:06:44.918Z,58.40
2018-03-06T13:09:12.493Z,58.90
2018-03-06T13:11:40.026Z,59.00
2018-03-06T13:14:08.342Z,60.30
2018-03-06T13:16:35.888Z,60.30
2018-03-06T13:19:03.439Z,60.70
2018-03-06T13:21:31.747Z,59.80
2018-03-06T13:23:59.295Z,59.70
2018-03-06T13:26:27.970Z,59.70
2018-03-06T13:28:56.287Z,58.90
2018-03-06T13:31:23.944Z,59.00
2018-03-06T13:33:51.482Z,59.50
2018-03-06T13:36:19.797Z,59.20
2018-03-06T13:38:47.415Z,58.60
2018-03-06T13:41:14.938Z,58.60
2018-03-06T13:43:42.485Z,58.10
2018-03-06T13:46:10.039Z,57.30
2018-03-06T13:48:38.347Z,57.40
2018-03-06T13:51:05.918Z,57.40
2018-03-06T13:53:33.465Z,57.00
2018-03-06T13:56:00.999Z,56.10
2018-03-06T13:58:28.544Z,56.70
2018-03-06T14:00:56.104Z,57.50
2018-03-06T14:03:23.678Z,57.70
2018-03-06T14:05:51.231Z,58.10
2018-03-06T14:08:18.813Z,58.60
2018-03-06T14:10:46.414Z,58.70
2018-03-06T14:13:13.922Z,59.20
2018-03-06T14:15:41.545Z,58.60
2018-03-06T14:18:09.940Z,59.40
2018-03-06T14:20:37.493Z,59.40
2018-03-06T14:23:05.788Z,60.60
2018-03-06T14:25:33.341Z,60.50
2018-03-06T14:28:01.673Z,60.70
2018-03-06T14:30:29.984Z,61.80
2018-03-06T14:32:57.535Z,61.10
2018-03-06T14:35:25.083Z,61.60
2018-03-06T14:37:52.617Z,61.90
2018-03-06T14:40:20.163Z,62.10
2018-03-06T14:42:48.510Z,61.20
2018-03-06T14:45:16.915Z,61.20
2018-03-06T14:47:44.573Z,61.80
2018-03-06T14:50:12.113Z,62.50
2018-03-06T14:52:39.672Z,62.30
2018-03-06T14:55:07.227Z,62.40
2018-03-06T14:57:34.855Z,63.10
2018-03-06T15:00:03.208Z,64.10
2018-03-06T15:02:30.760Z,64.10
2018-03-06T15:04:58.364Z,65.60
2018-03-06T15:07:25.908Z,66.20
2018-03-06T15:09:53.477Z,66.60
2018-03-06T15:12:21.030Z,66.80
2018-03-06T15:14:48.852Z,66.60
2018-03-06T15:17:17.178Z,66.70
2018-03-06T15:19:44.730Z,66.70
2018-03-06T15:22:12.276Z,67.20
2018-03-06T15:24:39.839Z,68.20
2018-03-06T15:27:07.409Z,68.60
2018-03-06T15:29:34.974Z,68.60
2018-03-06T15:32:02.562Z,68.90
2018-03-06T15:34:30.077Z,69.00
2018-03-06T15:36:58.398Z,69.50
2018-03-06T15:39:25.940Z,70.10
2018-03-06T15:41:53.711Z,70.00
2018-03-06T15:44:21.256Z,70.50
2018-03-06T15:46:49.564Z,72.90
2018-03-06T15:49:17.113Z,72.80
2018-03-06T15:51:45.411Z,74.20
2018-03-06T15:54:12.972Z,74.10
2018-03-06T15:56:40.519Z,75.90
2018-03-06T15:59:08.830Z,77.90
2018-03-06T16:01:36.368Z,77.80
2018-03-06T16:04:04.675Z,80.90
2018-03-06T16:06:32.253Z,80.90
2018-03-06T16:08:59.778Z,82.00
2018-03-06T16:11:28.107Z,83.30
2018-03-06T16:13:55.664Z,83.30
2018-03-06T16:16:23.202Z,83.90
2018-03-06T16:18:51.550Z,84.70
2018-03-06T16:21:19.089Z,84.80
2018-03-06T16:23:46.639Z,85.40
2018-03-06T16:26:14.183Z,85.40
2018-03-06T16:28:42.501Z,85.80
2018-03-06T16:31:10.158Z,85.70
2018-03-06T16:33:37.700Z,85.80
2018-03-06T16:36:06.041Z,86.00
2018-03-06T16:38:33.587Z,86.00
2018-03-06T16:41:01.136Z,86.30
2018-03-06T16:43:28.725Z,87.10
2018-03-06T16:45:56.312Z,86.50
2018-03-06T16:48:23.946Z,86.50
2018-03-06T16:50:51.472Z,86.50
2018-03-06T16:53:19.779Z,86.10
2018-03-06T16:55:47.332Z,86.10
2018-03-06T16:58:14.909Z,86.00
2018-03-06T17:00:42.442Z,86.10
2018-03-06T17:03:10.768Z,86.40
2018-03-06T17:05:38.308Z,86.30
2018-03-06T17:08:06.658Z,86.70
2018-03-06T17:10:34.194Z,86.70
2018-03-06T17:13:01.742Z,86.70
2018-03-06T17:15:29.286Z,86.70
2018-03-06T17:17:57.639Z,87.10
2018-03-06T17:20:25.217Z,87.10
2018-03-06T17:22:52.764Z,87.00
2018-03-06T17:25:20.338Z,87.30
2018-03-06T17:27:47.884Z,86.70
2018-03-06T17:30:15.462Z,86.70
2018-03-06T17:32:43.026Z,86.70
2018-03-06T17:35:10.628Z,86.70
2018-03-06T17:37:38.935Z,86.70
2018-03-06T17:40:06.486Z,86.70
2018-03-06T17:42:34.026Z,87.50
2018-03-06T17:45:02.536Z,88.20
2018-03-06T17:47:30.093Z,88.10
2018-03-06T17:49:58.408Z,88.90
2018-03-06T17:52:25.977Z,88.90
2018-03-06T17:54:53.538Z,89.20
2018-03-06T17:57:21.123Z,89.00
2018-03-06T17:59:48.668Z,89.60
2018-03-06T18:02:16.331Z,89.60
2018-03-06T18:04:43.878Z,90.00
2018-03-06T18:07:12.247Z,90.20
2018-03-06T18:09:39.891Z,90.20
2018-03-06T18:12:07.448Z,90.30
2018-03-06T18:14:35.013Z,90.50
2018-03-06T18:17:02.604Z,90.50
2018-03-06T18:19:30.243Z,90.50
2018-03-06T18:21:57.810Z,90.80
2018-03-06T18:24:26.155Z,90.90
2018-03-06T18:26:53.704Z,90.90
2018-03-06T18:29:22.037Z,91.10
2018-03-06T18:31:49.628Z,91.10
2018-03-06T18:34:17.408Z,91.40
2018-03-06T18:36:44.981Z,91.40
2018-03-06T18:39:12.537Z,91.80
2018-03-06T18:41:40.098Z,92.00
2018-03-06T18:44:07.705Z,92.10
2018-03-06T18:46:35.291Z,92.30
2018-03-06T18:49:03.001Z,92.40
2018-03-06T18:51:30.557Z,92.50
2018-03-06T18:53:58.127Z,92.80
2018-03-06T18:56:25.690Z,92.60
2018-03-06T18:58:53.322Z,92.70
2018-03-06T19:01:41.681Z,92.70
2018-03-06T19:04:21.003Z,92.70
2018-03-06T19:09:45.516Z,92.80
2018-03-06T19:12:13.104Z,92.90
2018-03-06T19:14:40.673Z,92.80
2018-03-06T19:17:08.306Z,92.80
2018-03-06T19:19:35.873Z,93.10
2018-03-06T19:22:04.134Z,92.60
2018-03-06T19:24:31.697Z,92.70
2018-03-06T19:26:59.329Z,93.00
2018-03-06T19:29:27.697Z,93.40
2018-03-06T19:31:55.363Z,93.40
2018-03-06T19:34:23.000Z,93.60
2018-03-06T19:36:50.616Z,93.80
2018-03-06T19:39:18.273Z,93.90
2018-03-06T19:41:46.637Z,93.90
2018-03-06T19:44:14.370Z,93.90
2018-03-06T19:46:41.970Z,94.10
2018-03-06T19:49:09.555Z,94.10
2018-03-06T19:51:37.165Z,93.90
2018-03-06T19:54:04.766Z,93.80
2018-03-06T19:56:32.379Z,93.70
2018-03-06T19:59:01.107Z,93.70
2018-03-06T20:01:28.803Z,93.70
2018-03-06T20:03:56.869Z,93.70
2018-03-06T20:06:24.500Z,93.60
2018-03-06T20:08:52.164Z,93.60
2018-03-06T20:11:20.215Z,93.50
2018-03-06T20:13:49.946Z,93.30
2018-03-06T20:16:17.600Z,93.30
2018-03-06T20:18:45.949Z,93.20
2018-03-06T20:21:13.580Z,93.20
2018-03-06T20:23:41.190Z,93.30
2018-03-06T20:26:08.877Z,93.20
2018-03-06T20:28:37.245Z,93.10
2018-03-06T20:31:10.461Z,93.00
2018-03-06T20:33:39.104Z,93.00
2018-03-06T20:36:06.715Z,93.00
2018-03-06T20:38:39.978Z,92.90
2018-03-06T20:41:07.590Z,93.10
2018-03-06T20:43:35.906Z,92.00
2018-03-06T20:46:09.187Z,92.00
2018-03-06T20:48:36.761Z,92.00
2018-03-06T20:51:04.338Z,92.00
2018-03-06T20:53:37.438Z,92.00
2018-03-06T20:56:05.008Z,92.00
2018-03-06T20:58:32.612Z,92.00
2018-03-06T21:01:00.960Z,92.20
2018-03-06T21:03:29.290Z,92.40
2018-03-06T21:05:57.631Z,92.50
2018-03-06T21:08:25.184Z,92.50
2018-03-06T21:10:53.550Z,93.10
2018-03-06T21:13:21.087Z,92.80
2018-03-06T21:15:49.385Z,93.00
2018-03-06T21:18:16.917Z,92.90
2018-03-06T21:20:44.463Z,92.80
2018-03-06T21:23:12.044Z,92.80
2018-03-06T21:25:39.639Z,92.90
2018-03-06T21:28:07.989Z,93.20
2018-03-06T21:30:35.547Z,93.20
2018-03-06T21:33:03.109Z,93.20
2018-03-06T21:35:30.662Z,93.40
2018-03-06T21:37:58.206Z,93.40
2018-03-06T21:40:25.792Z,93.60
2018-03-06T21:42:53.380Z,93.70
2018-03-06T21:45:20.965Z,94.20
2018-03-06T21:47:48.646Z,94.40
2018-03-06T21:50:16.960Z,94.40
2018-03-06T21:52:44.507Z,94.40
2018-03-06T21:55:12.039Z,94.40
2018-03-06T21:57:39.602Z,94.50
2018-03-06T22:00:07.159Z,94.60
2018-03-06T22:02:34.714Z,94.50
2018-03-06T22:05:02.258Z,94.60
2018-03-06T22:07:29.811Z,94.60
2018-03-06T22:09:57.372Z,94.90
2018-03-06T22:12:24.964Z,95.10
2018-03-06T22:14:53.271Z,95.30
2018-03-06T22:17:20.804Z,95.30
2018-03-06T22:19:48.363Z,95.50
2018-03-06T22:22:15.954Z,95.50
2018-03-06T22:24:43.540Z,95.50
2018-03-06T22:27:11.072Z,95.70
2018-03-06T22:29:38.619Z,95.80
2018-03-06T22:32:06.266Z,95.80
2018-03-06T22:34:34.576Z,95.70
2018-03-06T22:37:02.123Z,95.60
2018-03-06T22:39:29.665Z,95.90
2018-03-06T22:41:57.215Z,96.00
2018-03-06T22:44:24.763Z,95.90
2018-03-06T22:46:52.301Z,95.80
2018-03-06T22:49:19.885Z,95.80
2018-03-06T22:51:47.407Z,95.90
2018-03-06T22:54:15.017Z,95.90
2018-03-06T22:56:42.561Z,96.20
2018-03-06T22:59:10.171Z,96.10
2018-03-06T23:01:37.722Z,96.10
2018-03-06T23:04:05.272Z,96.10
2018-03-06T23:06:32.812Z,96.00
2018-03-06T23:09:00.348Z,96.10
2018-03-06T23:11:27.884Z,96.10
2018-03-06T23:13:55.478Z,96.10
2018-03-06T23:16:23.013Z,96.30
2018-03-06T23:18:50.592Z,96.30
2018-03-06T23:21:18.117Z,96.30
2018-03-06T23:23:45.656Z,96.20
2018-03-06T23:26:13.974Z,96.50
2018-03-06T23:28:41.508Z,96.40
2018-03-06T23:31:09.807Z,96.40
2018-03-06T23:33:37.342Z,96.40
2018-03-06T23:36:05.656Z,96.70
2018-03-06T23:38:33.227Z,96.70
2018-03-06T23:41:00.750Z,96.40
2018-03-06T23:43:29.045Z,95.80
2018-03-06T23:45:57.343Z,95.70
2018-03-06T23:48:25.054Z,95.70
2018-03-06T23:50:52.636Z,95.80
2018-03-06T23:53:20.190Z,96.10
2018-03-06T23:55:47.729Z,96.20
2018-03-06T23:58:15.274Z,96.40
